createdAt,value
2023-02-05T00:00:06.595Z,19.60
2023-02-05T00:03:08.626Z,19.70
2023-02-05T00:06:11.061Z,20.60
2023-02-05T00:09:13.040Z,20.30
2023-02-05T00:12:15.402Z,19.30
2023-02-05T00:15:17.434Z,19.80
2023-02-05T00:18:19.731Z,19.10
2023-02-05T00:21:22.872Z,19.40
2023-02-05T00:24:25.322Z,19.80
2023-02-05T00:27:27.729Z,20.70
2023-02-05T00:30:30.300Z,21.70
2023-02-05T00:33:32.395Z,21.70
2023-02-05T00:36:34.652Z,21.50
2023-02-05T00:39:36.647Z,22.20
2023-02-05T00:42:39.112Z,21.70
2023-02-05T00:45:41.096Z,21.80
2023-02-05T00:48:43.903Z,21.70
2023-02-05T00:51:45.914Z,21.40
2023-02-05T00:54:48.190Z,21.90
2023-02-05T00:57:50.311Z,21.60
2023-02-05T01:00:52.732Z,22.10
2023-02-05T01:03:54.744Z,22.60
2023-02-05T01:06:57.049Z,23.40
2023-02-05T01:09:59.070Z,23.60
2023-02-05T01:13:01.570Z,23.40
2023-02-05T01:16:04.316Z,23.20
2023-02-05T01:19:08.208Z,23.50
2023-02-05T01:22:11.535Z,24.20
2023-02-05T01:25:13.858Z,24.20
2023-02-05T01:28:17.243Z,24.20
2023-02-05T01:31:20.709Z,24.10
2023-02-05T01:34:22.826Z,24.40
2023-02-05T01:37:25.410Z,24.50
2023-02-05T01:40:27.825Z,24.70
2023-02-05T01:43:30.174Z,24.70
2023-02-05T01:46:32.500Z,25.10
2023-02-05T01:49:39.089Z,25.10
2023-02-05T01:52:41.399Z,25.10
2023-02-05T01:56:08.348Z,25.00
2023-02-05T01:59:18.877Z,25.20
2023-02-05T02:02:21.273Z,25.20
2023-02-05T02:05:23.406Z,25.20
2023-02-05T02:08:26.564Z,25.20
2023-02-05T02:11:31.108Z,25.20
2023-02-05T02:14:36.107Z,25.10
2023-02-05T02:17:42.502Z,25.10
2023-02-05T02:20:46.406Z,24.70
2023-02-05T02:24:03.617Z,24.90
2023-02-05T02:27:11.639Z,24.90
2023-02-05T02:30:16.406Z,25.20
2023-02-05T02:33:48.246Z,25.00
2023-02-05T02:37:06.988Z,25.10
2023-02-05T02:40:28.882Z,25.20
2023-02-05T02:43:34.510Z,25.00
2023-02-05T02:46:52.172Z,25.00
2023-02-05T02:49:59.634Z,25.10
2023-02-05T02:53:16.912Z,25.40
2023-02-05T02:56:20.652Z,25.50
2023-02-05T02:59:25.822Z,25.60
2023-02-05T03:02:32.293Z,25.60
2023-02-05T03:05:36.346Z,25.60
2023-02-05T03:08:50.058Z,25.50
2023-02-05T03:11:52.449Z,25.40
2023-02-05T03:14:55.374Z,25.40
2023-02-05T03:17:58.101Z,25.40
2023-02-05T03:21:12.863Z,25.40
2023-02-05T03:24:15.650Z,25.30
2023-02-05T03:27:17.754Z,25.30
2023-02-05T03:30:21.076Z,25.20
2023-02-05T03:33:55.110Z,25.20
2023-02-05T03:37:35.517Z,25.20
2023-02-05T03:41:03.392Z,25.20
2023-02-05T03:44:14.578Z,25.20
2023-02-05T03:47:45.759Z,25.20
2023-02-05T03:51:10.364Z,25.10
2023-02-05T03:54:22.483Z,25.10
2023-02-05T03:57:30.756Z,25.10
2023-02-05T04:00:33.462Z,25.10
2023-02-05T04:03:35.956Z,25.10
2023-02-05T04:06:38.309Z,25.10
2023-02-05T04:09:40.553Z,25.10
2023-02-05T04:12:42.550Z,25.10
2023-02-05T04:15:44.820Z,25.10
2023-02-05T04:18:46.849Z,25.10
2023-02-05T04:21:49.215Z,25.10
2023-02-05T04:24:51.226Z,25.00
2023-02-05T04:27:54.507Z,25.10
2023-02-05T04:30:56.515Z,25.10
2023-02-05T04:34:00.039Z,25.10
2023-02-05T04:37:02.519Z,25.00
2023-02-05T04:40:05.548Z,25.10
2023-02-05T04:43:07.713Z,25.00
2023-02-05T04:46:11.710Z,25.00
2023-02-05T04:49:13.762Z,25.00
2023-02-05T04:52:16.112Z,25.00
2023-02-05T04:55:18.095Z,24.90
2023-02-05T04:58:21.448Z,24.90
2023-02-05T05:01:24.289Z,24.90
2023-02-05T05:04:26.884Z,24.80
2023-02-05T05:07:31.227Z,24.80
2023-02-05T05:10:33.526Z,24.80
2023-02-05T05:13:35.850Z,24.80
2023-02-05T05:16:38.108Z,24.80
2023-02-05T05:19:40.341Z,24.70
2023-02-05T05:22:42.658Z,24.70
2023-02-05T05:25:46.886Z,24.70
2023-02-05T05:28:54.193Z,24.70
2023-02-05T05:31:56.263Z,24.70
2023-02-05T05:34:58.981Z,24.60
2023-02-05T05:38:01.734Z,24.50
2023-02-05T05:41:39.728Z,24.60
2023-02-05T05:44:41.813Z,24.60
2023-02-05T05:47:44.185Z,24.70
2023-02-05T05:50:46.630Z,24.70
2023-02-05T05:53:49.032Z,24.70
2023-02-05T05:56:51.040Z,24.70
2023-02-05T05:59:53.388Z,24.80
2023-02-05T06:02:55.347Z,24.70
2023-02-05T06:05:59.920Z,24.70
2023-02-05T06:09:01.922Z,24.70
2023-02-05T06:12:04.355Z,24.70
2023-02-05T06:15:07.437Z,24.80
2023-02-05T06:18:09.856Z,24.80
2023-02-05T06:21:11.884Z,24.80
2023-02-05T06:24:14.195Z,24.80
2023-02-05T06:27:16.214Z,24.80
2023-02-05T06:30:18.758Z,24.80
2023-02-05T06:33:20.710Z,24.80
2023-02-05T06:36:23.373Z,24.80
2023-02-05T06:39:25.467Z,24.70
2023-02-05T06:42:28.543Z,24.80
2023-02-05T06:45:30.683Z,24.80
2023-02-05T06:48:32.968Z,24.90
2023-02-05T06:51:35.008Z,24.90
2023-02-05T06:54:38.761Z,25.00
2023-02-05T06:57:40.747Z,25.00
2023-02-05T07:00:43.159Z,25.10
2023-02-05T07:03:45.278Z,25.10
2023-02-05T07:06:47.552Z,25.10
2023-02-05T07:09:49.839Z,25.20
2023-02-05T07:12:52.086Z,25.30
2023-02-05T07:15:54.122Z,25.40
2023-02-05T07:18:57.586Z,25.60
2023-02-05T07:21:59.662Z,25.80
2023-02-05T07:25:04.208Z,25.90
2023-02-05T07:28:08.425Z,26.10
2023-02-05T07:31:15.294Z,26.20
2023-02-05T07:34:17.383Z,26.30
2023-02-05T07:37:21.415Z,26.20
2023-02-05T07:40:23.612Z,26.30
2023-02-05T07:43:25.969Z,26.40
2023-02-05T07:46:28.152Z,26.40
2023-02-05T07:49:30.594Z,26.40
2023-02-05T07:52:33.753Z,26.50
2023-02-05T07:55:36.309Z,26.60
2023-02-05T07:58:38.583Z,26.80
2023-02-05T08:01:48.902Z,26.70
2023-02-05T08:04:54.272Z,26.90
2023-02-05T08:07:56.606Z,27.00
2023-02-05T08:11:04.025Z,27.00
2023-02-05T08:14:06.436Z,27.00
2023-02-05T08:17:08.418Z,27.20
2023-02-05T08:20:11.427Z,27.30
2023-02-05T08:23:13.633Z,27.40
2023-02-05T08:26:16.554Z,27.30
2023-02-05T08:29:18.836Z,27.50
2023-02-05T08:32:21.164Z,27.60
2023-02-05T08:35:23.241Z,27.60
2023-02-05T08:38:29.439Z,27.70
2023-02-05T08:41:31.530Z,27.40
2023-02-05T08:44:34.860Z,27.50
2023-02-05T08:47:37.186Z,27.50
2023-02-05T08:50:39.554Z,27.60
2023-02-05T08:53:42.105Z,27.60
2023-02-05T08:56:45.322Z,27.50
2023-02-05T08:59:48.453Z,26.80
2023-02-05T09:02:50.789Z,26.00
2023-02-05T09:05:53.008Z,25.10
2023-02-05T09:08:55.327Z,25.30
2023-02-05T09:11:58.688Z,25.70
2023-02-05T09:15:01.034Z,25.90
2023-02-05T09:18:03.066Z,25.60
2023-02-05T09:21:10.102Z,26.20
2023-02-05T09:24:12.098Z,26.30
2023-02-05T09:27:15.025Z,25.10
2023-02-05T09:30:17.187Z,24.60
2023-02-05T09:33:19.523Z,25.70
2023-02-05T09:36:23.463Z,26.40
2023-02-05T09:40:01.960Z,26.20
2023-02-05T09:43:03.160Z,25.60
2023-02-05T09:46:33.685Z,26.60
2023-02-05T09:49:47.118Z,26.60
2023-02-05T09:52:54.197Z,27.00
2023-02-05T09:55:57.650Z,27.30
2023-02-05T09:59:00.276Z,27.00
2023-02-05T10:02:16.658Z,27.10
2023-02-05T10:05:23.733Z,27.70
2023-02-05T10:08:39.578Z,28.00
2023-02-05T10:11:43.018Z,28.10
2023-02-05T10:15:19.679Z,28.00
2023-02-05T10:18:46.578Z,28.00
2023-02-05T10:22:12.670Z,28.30
2023-02-05T10:25:35.150Z,28.30
2023-02-05T10:28:57.464Z,28.30
2023-02-05T10:32:07.665Z,28.30
2023-02-05T10:35:23.910Z,28.30
2023-02-05T10:38:29.204Z,28.30
2023-02-05T10:41:53.019Z,27.90
2023-02-05T10:45:04.770Z,27.80
2023-02-05T10:48:09.898Z,27.70
2023-02-05T10:51:16.746Z,27.40
2023-02-05T10:54:29.414Z,27.40
2023-02-05T10:57:35.477Z,27.50
2023-02-05T11:00:39.121Z,27.30
2023-02-05T11:03:56.302Z,27.60
2023-02-05T11:06:58.651Z,27.10
2023-02-05T11:10:26.304Z,27.00
2023-02-05T11:13:30.160Z,27.60
2023-02-05T11:16:42.003Z,27.70
2023-02-05T11:19:59.140Z,27.20
2023-02-05T11:23:16.424Z,27.40
2023-02-05T11:26:21.154Z,27.60
2023-02-05T11:29:33.111Z,27.60
2023-02-05T11:32:37.765Z,27.60
2023-02-05T11:35:40.217Z,27.60
2023-02-05T11:38:54.449Z,27.60
2023-02-05T11:41:58.599Z,27.40
2023-02-05T11:45:05.265Z,27.60
2023-02-05T11:48:28.377Z,27.80
2023-02-05T11:51:36.364Z,27.50
2023-02-05T11:54:43.747Z,27.70
2023-02-05T11:57:46.022Z,27.20
2023-02-05T12:00:57.748Z,27.60
2023-02-05T12:04:11.564Z,27.30
2023-02-05T12:07:16.666Z,27.10
2023-02-05T12:10:26.845Z,27.60
2023-02-05T12:14:02.189Z,27.40
2023-02-05T12:17:23.365Z,27.30
2023-02-05T12:20:38.795Z,27.10
2023-02-05T12:23:58.939Z,27.20
2023-02-05T12:27:45.979Z,27.20
2023-02-05T12:31:27.485Z,27.10
2023-02-05T12:34:41.327Z,27.60
2023-02-05T12:38:21.134Z,27.50
2023-02-05T12:41:51.518Z,27.10
2023-02-05T12:45:01.687Z,27.30
2023-02-05T12:48:32.628Z,27.10
2023-02-05T12:51:43.284Z,27.20
2023-02-05T12:55:08.408Z,27.60
2023-02-05T12:58:16.663Z,27.80
2023-02-05T13:01:32.087Z,27.70
2023-02-05T13:04:44.418Z,27.90
2023-02-05T13:07:49.621Z,27.80
2023-02-05T13:11:12.703Z,27.60
2023-02-05T13:14:21.841Z,27.80
2023-02-05T13:17:29.799Z,27.90
2023-02-05T13:21:08.088Z,27.90
2023-02-05T13:24:46.442Z,27.70
2023-02-05T13:28:13.247Z,27.70
2023-02-05T13:31:25.774Z,27.70
2023-02-05T13:34:36.988Z,27.80
2023-02-05T13:37:51.559Z,27.90
2023-02-05T13:41:21.739Z,27.90
2023-02-05T13:44:54.500Z,27.90
2023-02-05T13:48:31.191Z,27.90
2023-02-05T13:51:55.845Z,27.80
2023-02-05T13:55:19.884Z,27.90
2023-02-05T13:58:34.524Z,28.00
2023-02-05T14:01:43.210Z,28.00
2023-02-05T14:04:54.816Z,28.10
2023-02-05T14:08:04.761Z,28.10
2023-02-05T14:11:07.043Z,28.20
2023-02-05T14:14:30.925Z,28.20
2023-02-05T14:17:32.883Z,28.30
2023-02-05T14:20:38.483Z,28.30
2023-02-05T14:23:46.490Z,28.30
2023-02-05T14:26:58.608Z,28.30
2023-02-05T14:30:33.099Z,28.20
2023-02-05T14:33:46.046Z,28.10
2023-02-05T14:36:51.278Z,28.00
2023-02-05T14:40:00.370Z,28.00
2023-02-05T14:43:19.968Z,27.70
2023-02-05T14:46:49.507Z,27.50
2023-02-05T14:50:09.699Z,27.40
2023-02-05T14:53:26.647Z,27.40
2023-02-05T14:56:44.011Z,27.30
2023-02-05T15:00:02.548Z,27.40
2023-02-05T15:03:22.630Z,27.20
2023-02-05T15:06:34.452Z,27.30
2023-02-05T15:10:02.034Z,27.50
2023-02-05T15:13:16.920Z,27.60
2023-02-05T15:16:21.654Z,27.60
2023-02-05T15:19:24.164Z,27.60
2023-02-05T15:22:28.805Z,27.70
2023-02-05T15:25:58.353Z,27.60
2023-02-05T15:29:35.577Z,27.60
2023-02-05T15:33:04.143Z,27.60
2023-02-05T15:36:17.554Z,27.60
2023-02-05T15:39:24.765Z,27.50
2023-02-05T15:42:40.504Z,27.50
2023-02-05T15:45:45.194Z,27.40
2023-02-05T15:48:47.325Z,27.40
2023-02-05T15:51:51.139Z,27.30
2023-02-05T15:55:08.933Z,27.20
2023-02-05T15:58:13.656Z,27.20
2023-02-05T16:01:37.664Z,27.10
2023-02-05T16:04:43.718Z,27.10
2023-02-05T16:08:00.272Z,27.00
2023-02-05T16:11:05.385Z,27.00
2023-02-05T16:14:11.008Z,27.00
2023-02-05T16:17:21.529Z,27.00
2023-02-05T16:20:30.259Z,26.90
2023-02-05T16:23:42.907Z,26.90
2023-02-05T16:26:49.775Z,26.80
2023-02-05T16:29:59.019Z,26.80
2023-02-05T16:33:05.348Z,26.80
2023-02-05T16:36:20.927Z,26.70
2023-02-05T16:39:28.878Z,26.70
2023-02-05T16:42:46.094Z,26.70
2023-02-05T16:46:06.754Z,26.70
2023-02-05T16:49:25.727Z,26.60
2023-02-05T16:52:33.545Z,26.60
2023-02-05T16:55:43.740Z,26.60
2023-02-05T16:58:56.510Z,26.50
2023-02-05T17:01:59.719Z,26.50
2023-02-05T17:05:05.983Z,26.50
2023-02-05T17:08:13.434Z,26.50
2023-02-05T17:11:33.661Z,26.40
2023-02-05T17:14:36.827Z,26.40
2023-02-05T17:17:50.269Z,26.40
2023-02-05T17:21:28.882Z,26.40
2023-02-05T17:24:30.862Z,26.40
2023-02-05T17:27:37.818Z,26.50
2023-02-05T17:30:41.933Z,26.50
2023-02-05T17:33:49.437Z,26.50
2023-02-05T17:36:51.799Z,26.50
2023-02-05T17:39:55.535Z,26.60
2023-02-05T17:43:01.039Z,26.60
2023-02-05T17:46:03.686Z,26.40
2023-02-05T17:49:08.333Z,26.50
2023-02-05T17:52:10.955Z,26.50
2023-02-05T17:55:19.435Z,26.50
2023-02-05T17:58:21.860Z,26.50
2023-02-05T18:01:23.946Z,26.50
2023-02-05T18:04:26.362Z,26.40
2023-02-05T18:07:36.357Z,26.40
2023-02-05T18:10:38.829Z,26.40
2023-02-05T18:13:40.975Z,26.40
2023-02-05T18:16:43.340Z,26.30
2023-02-05T18:19:45.586Z,26.30
2023-02-05T18:22:57.349Z,26.30
2023-02-05T18:26:05.088Z,26.30
2023-02-05T18:29:07.875Z,26.20
2023-02-05T18:32:13.145Z,26.20
2023-02-05T18:35:16.182Z,26.20
2023-02-05T18:38:18.583Z,26.20
2023-02-05T18:41:28.714Z,26.20
2023-02-05T18:44:33.039Z,26.10
2023-02-05T18:47:35.263Z,26.20
2023-02-05T18:50:40.162Z,26.20
2023-02-05T18:53:45.600Z,26.10
2023-02-05T18:56:48.462Z,26.10
2023-02-05T18:59:54.760Z,26.10
2023-02-05T19:02:59.863Z,26.10
2023-02-05T19:06:09.919Z,26.10
2023-02-05T19:09:12.562Z,26.00
2023-02-05T19:12:21.018Z,25.90
2023-02-05T19:15:24.615Z,26.00
2023-02-05T19:18:35.248Z,25.90
2023-02-05T19:21:37.882Z,26.00
2023-02-05T19:24:40.910Z,26.00
2023-02-05T19:27:46.213Z,26.00
2023-02-05T19:30:50.696Z,25.90
2023-02-05T19:33:55.538Z,26.00
2023-02-05T19:37:01.435Z,26.00
2023-02-05T19:40:03.724Z,25.90
2023-02-05T19:43:10.803Z,26.00
2023-02-05T19:46:13.268Z,26.00
2023-02-05T19:49:19.216Z,26.00
2023-02-05T19:52:21.250Z,26.00
2023-02-05T19:55:26.158Z,26.10
2023-02-05T19:58:29.925Z,26.00
2023-02-05T20:01:34.460Z,26.10
2023-02-05T20:04:39.173Z,26.10
2023-02-05T20:07:41.730Z,26.10
2023-02-05T20:10:44.155Z,26.10
2023-02-05T20:13:47.697Z,26.10
2023-02-05T20:16:50.329Z,26.20
2023-02-05T20:19:59.629Z,26.20
2023-02-05T20:23:11.103Z,26.20
2023-02-05T20:26:19.145Z,26.20
2023-02-05T20:29:42.190Z,26.20
2023-02-05T20:32:45.874Z,26.20
2023-02-05T20:35:48.520Z,26.20
2023-02-05T20:38:58.187Z,26.10
2023-02-05T20:42:10.684Z,26.10
2023-02-05T20:45:15.420Z,26.10
2023-02-05T20:48:25.150Z,26.10
2023-02-05T20:51:28.132Z,26.00
2023-02-05T20:54:35.187Z,26.00
2023-02-05T20:57:38.832Z,26.00
2023-02-05T21:00:41.391Z,25.90
2023-02-05T21:03:51.740Z,25.90
2023-02-05T21:06:54.261Z,25.80
2023-02-05T21:09:56.964Z,25.80
2023-02-05T21:13:02.352Z,25.70
2023-02-05T21:16:11.592Z,25.70
2023-02-05T21:19:18.440Z,25.70
2023-02-05T21:22:20.750Z,25.70
2023-02-05T21:25:24.230Z,25.70
2023-02-05T21:28:27.111Z,25.60
2023-02-05T21:31:33.971Z,25.60
2023-02-05T21:34:36.782Z,25.60
2023-02-05T21:37:39.152Z,25.60
2023-02-05T21:40:41.528Z,25.50
2023-02-05T21:43:47.538Z,25.60
2023-02-05T21:46:49.936Z,25.60
2023-02-05T21:49:51.938Z,25.60
2023-02-05T21:52:55.082Z,25.60
2023-02-05T21:55:59.787Z,25.70
2023-02-05T21:59:02.342Z,25.70
2023-02-05T22:02:04.401Z,25.70
2023-02-05T22:05:07.215Z,25.80
2023-02-05T22:08:11.590Z,25.80
2023-02-05T22:11:14.998Z,25.90
2023-02-05T22:14:19.219Z,25.80
2023-02-05T22:17:22.497Z,25.90
2023-02-05T22:20:25.073Z,26.00
2023-02-05T22:23:27.372Z,26.00
2023-02-05T22:26:32.415Z,25.90
2023-02-05T22:29:34.865Z,25.90
2023-02-05T22:32:36.870Z,26.00
2023-02-05T22:35:39.271Z,26.00
2023-02-05T22:38:42.276Z,26.00
2023-02-05T22:41:44.826Z,26.10
2023-02-05T22:44:46.900Z,26.20
2023-02-05T22:47:49.267Z,26.30
2023-02-05T22:50:51.379Z,26.30
2023-02-05T22:53:54.811Z,26.30
2023-02-05T22:56:58.107Z,26.30
2023-02-05T23:00:00.461Z,26.30
2023-02-05T23:03:02.534Z,26.40
2023-02-05T23:06:13.769Z,26.40
2023-02-05T23:09:17.946Z,26.30
2023-02-05T23:12:20.292Z,26.40
2023-02-05T23:15:22.309Z,26.40
2023-02-05T23:18:24.602Z,26.40
2023-02-05T23:21:29.676Z,26.40
2023-02-05T23:24:32.366Z,26.40
2023-02-05T23:27:34.615Z,26.40
2023-02-05T23:30:36.974Z,26.40
2023-02-05T23:33:39.174Z,26.40
2023-02-05T23:36:41.461Z,26.40
2023-02-05T23:39:43.472Z,26.40
2023-02-05T23:42:45.693Z,26.40
2023-02-05T23:45:48.941Z,26.40
2023-02-05T23:48:51.232Z,26.30
2023-02-05T23:51:54.934Z,26.30
2023-02-05T23:54:57.639Z,26.30
2023-02-05T23:57:59.637Z,26.30
